Airport View

Enter AWOS ICAO identifier for current METAR.

ex. KFNL

KCKP 100205Z AUTO 00000KT 10SM CLR 23/21 A2994 RMK AO2 T02310210

10 Jul 2020 02:06

Frequency: 119.225

Phone: 712-225-1088

Other Area AWOS: KSLB - KORC - KLRJ - KSPW

TAF KSUX 092320Z 1000/1024 31003KT P6SM FEW200 FM101800 19009KT P6SM SCT200